Hanjin Ottawa — DANM — position and weather

sailwx.info

Track history (hours):
 
Tides and Currents Weather Stations Pressure Air Temp Water Temp Dewpoint Dewpoint Depression Visibility Wind Speed Wind Dir Waves Ship Positions

Hanjin Ottawa

Last reported at 2014-Oct-25 17:34 UTC. Time now 2014-Oct-25 18:19 UTC.
Position N 47°36' W 122°21'.

Length 278.8 m; beam 40.3 m; draft 14 m.

Type: Ship. MMSI: 211378360.

Date/timePositionNaut miles runAvg speedWind from/ knotsBaromVisibWave heightAir tempDewpointWater temp
2014-Oct-25 17:34N 47°36' W 122°21'0 0.0
2014-Oct-25 16:33N 47°36' W 122°21'0 0.0
2014-Oct-25 15:33N 47°36' W 122°21'1 1.2
2014-Oct-25 14:33N 47°36' W 122°22'1211.7
2014-Oct-25 13:33N 47°47' W 122°27'2019.4
2014-Oct-25 12:31N 48°05' W 122°40'2121.4
2014-Oct-25 11:33N 48°12' W 123°09'1414.3
2014-Oct-25 10:33N 48°13' W 123°31'1212.5
2014-Oct-25 09:33N 48°13' W 123°49'1313.4
2014-Oct-25 08:33N 48°17' W 124°08'1414.1
2014-Oct-25 07:33N 48°23' W 124°27'1413.8
2014-Oct-25 06:33N 48°29' W 124°47'1413.9
2014-Oct-25 05:33N 48°29' W 125°08'1313.4
2014-Oct-25 04:33N 48°37' W 125°24'1413.7
2014-Oct-25 03:33N 48°46' W 125°40'1413.8
2014-Oct-25 02:33N 48°54' W 125°56'1514.1
2014-Oct-25 01:28N 49°04' W 126°14'1314.3
2014-Oct-25 00:33N 49°13' W 126°29'1515.1
2014-Oct-24 23:33N 49°22' W 126°47'33315.6
2014-Oct-24 02:11N 54°16' W 131°03'711.0
2014-Oct-24 01:33N 54°18' W 130°52'1817.4
2014-Oct-24 00:33N 54°12' W 130°24'6 5.8
2014-Oct-23 23:34N 54°17' W 130°22'0 0.0
2014-Oct-23 22:31N 54°17' W 130°22'0 0.0
2014-Oct-23 21:31N 54°17' W 130°22'0 0.0
2014-Oct-23 20:33N 54°17' W 130°22'0 0.0
2014-Oct-23 19:33N 54°17' W 130°22'  
Track history (hours):
 
Tides and Currents Weather Stations Pressure Air Temp Water Temp Dewpoint Dewpoint Depression Visibility Wind Speed Wind Dir Waves Ship Positions

Hanjin Ottawa

Last reported at 2014-Oct-25 17:34 UTC. Time now 2014-Oct-25 18:19 UTC.
Position N 47°36' W 122°21'.

Length 278.8 m; beam 40.3 m; draft 14 m.

Type: Ship. MMSI: 211378360.

Date/timePositionNaut miles runAvg speedWind from/ knotsBaromVisibWave heightAir tempDewpointWater temp
2014-Oct-25 17:34N 47°36' W 122°21'0 0.0
2014-Oct-25 16:33N 47°36' W 122°21'0 0.0
2014-Oct-25 15:33N 47°36' W 122°21'1 1.2
2014-Oct-25 14:33N 47°36' W 122°22'1211.7
2014-Oct-25 13:33N 47°47' W 122°27'2019.4
2014-Oct-25 12:31N 48°05' W 122°40'2121.4
2014-Oct-25 11:33N 48°12' W 123°09'1414.3
2014-Oct-25 10:33N 48°13' W 123°31'1212.5
2014-Oct-25 09:33N 48°13' W 123°49'1313.4
2014-Oct-25 08:33N 48°17' W 124°08'1414.1
2014-Oct-25 07:33N 48°23' W 124°27'1413.8
2014-Oct-25 06:33N 48°29' W 124°47'1413.9
2014-Oct-25 05:33N 48°29' W 125°08'1313.4
2014-Oct-25 04:33N 48°37' W 125°24'1413.7
2014-Oct-25 03:33N 48°46' W 125°40'1413.8
2014-Oct-25 02:33N 48°54' W 125°56'1514.1
2014-Oct-25 01:28N 49°04' W 126°14'1314.3
2014-Oct-25 00:33N 49°13' W 126°29'1515.1
2014-Oct-24 23:33N 49°22' W 126°47'33315.6
2014-Oct-24 02:11N 54°16' W 131°03'711.0
2014-Oct-24 01:33N 54°18' W 130°52'1817.4
2014-Oct-24 00:33N 54°12' W 130°24'6 5.8
2014-Oct-23 23:34N 54°17' W 130°22'0 0.0
2014-Oct-23 22:31N 54°17' W 130°22'0 0.0
2014-Oct-23 21:31N 54°17' W 130°22'0 0.0
2014-Oct-23 20:33N 54°17' W 130°22'0 0.0
2014-Oct-23 19:33N 54°17' W 130°22'  

Dump ship's entire track history